This is the latest recevied weather packets stored in our database for station/object DF7ER-12. If no packets are shown the sender has not sent any weather packets the latest 10 day(s).
| Time | Temp. | Humidity | Pressure | Rain* | Wind** | Luminosity | Snow |
|---|---|---|---|---|---|---|---|
| 1787928379 | 26.11° C | 88% | 997.4 hPa | - | - | - | - |
| 1787928079 | 26.11° C | 90% | 997.6 hPa | - | - | - | - |
| 1787927778 | 26.67° C | 87% | 997.7 hPa | - | - | - | - |
| 1787927479 | 26.11° C | 88% | 997.6 hPa | - | - | - | - |
| 1787927179 | 26.11° C | 90% | 997.6 hPa | - | - | - | - |
| 1787926879 | 26.67° C | 89% | 997.7 hPa | - | - | - | - |
| 1787926578 | 26.11° C | 90% | 997.6 hPa | - | - | - | - |
| 1787926278 | 26.11° C | 93% | 997.5 hPa | - | - | - | - |
| 1787925979 | 25.56° C | 97% | 997.6 hPa | - | - | - | - |
| 1787925678 | 25° C | 100% | 997.5 hPa | - | - | - | - |
| 1787925378 | 26.11° C | 100% | 998 hPa | - | - | - | - |
| 1787925078 | 26.11° C | 96% | 998 hPa | - | - | - | - |
| 1787924778 | 27.22° C | 87% | 997.4 hPa | - | - | - | - |
| 1787924478 | 27.78° C | 80% | 996.8 hPa | - | - | - | - |
| 1787924179 | 28.33° C | 79% | 996.9 hPa | - | - | - | - |
| 1787923879 | 28.33° C | 78% | 996.9 hPa | - | - | - | - |
| 1787923578 | 28.89° C | 76% | 997 hPa | - | - | - | - |
| 1787923278 | 28.89° C | 76% | 997 hPa | - | - | - | - |
| 1787922979 | 28.89° C | 75% | 996.7 hPa | - | - | - | - |
| 1787922678 | 28.89° C | 74% | 996.8 hPa | - | - | - | - |
| 1787922378 | 28.33° C | 75% | 996.9 hPa | - | - | - | - |
| 1787922079 | 28.89° C | 74% | 996.9 hPa | - | - | - | - |
| 1787921779 | 28.89° C | 74% | 997.1 hPa | - | - | - | - |
| 1787921478 | 28.89° C | 75% | 997.3 hPa | - | - | - | - |
| 1787921178 | 28.89° C | 74% | 997.4 hPa | - | - | - | - |
* Rain since midnight (hover to see other rain measurements)
** Current wind speed in m/s (hover to see current wind gust speed)